createdAt,value
2022-09-10T00:00:37.574Z,84.81
2022-09-10T00:05:41.071Z,84.06
2022-09-10T00:10:45.090Z,83.98
2022-09-10T00:15:51.995Z,84.01
2022-09-10T00:20:55.407Z,83.44
2022-09-10T00:25:57.875Z,83.95
2022-09-10T00:30:59.407Z,84.26
2022-09-10T00:36:01.003Z,83.92
2022-09-10T00:41:04.841Z,84.14
2022-09-10T00:46:06.520Z,84.64
2022-09-10T00:51:08.137Z,84.04
2022-09-10T00:56:09.842Z,84.07
2022-09-10T01:01:11.546Z,83.94
2022-09-10T01:06:13.396Z,84.23
2022-09-10T01:11:42.434Z,84.18
2022-09-10T01:16:57.039Z,83.05
2022-09-10T01:22:29.481Z,83.67
2022-09-10T01:27:51.144Z,82.83
2022-09-10T01:33:02.000Z,83.29
2022-09-10T01:38:12.491Z,83.53
2022-09-10T01:43:14.930Z,84.16
2022-09-10T01:48:40.789Z,85.08
2022-09-10T01:53:56.395Z,84.88
2022-09-10T01:59:04.156Z,85.55
2022-09-10T02:04:15.246Z,84.83
2022-09-10T02:09:18.610Z,85.78
2022-09-10T02:14:21.890Z,85.82
2022-09-10T02:19:43.087Z,86.09
2022-09-10T02:24:44.809Z,86.12
2022-09-10T02:29:46.344Z,85.51
2022-09-10T02:34:48.327Z,87.02
2022-09-10T02:39:50.329Z,87.15
2022-09-10T02:44:53.532Z,85.78
2022-09-10T02:49:55.106Z,85.63
2022-09-10T02:54:57.167Z,85.61
2022-09-10T02:59:58.673Z,85.82
2022-09-10T03:05:04.902Z,84.78
2022-09-10T03:10:07.315Z,85.23
2022-09-10T03:15:09.543Z,85.66
2022-09-10T03:20:11.161Z,86.55
2022-09-10T03:25:12.706Z,85.49
2022-09-10T03:30:14.958Z,85.45
2022-09-10T03:35:16.896Z,86.60
2022-09-10T03:40:18.813Z,87.29
2022-09-10T03:45:20.353Z,87.20
2022-09-10T03:50:22.166Z,86.01
2022-09-10T03:55:25.605Z,86.09
2022-09-10T04:00:27.182Z,86.28
2022-09-10T04:05:29.534Z,85.91
2022-09-10T04:10:31.329Z,86.71
2022-09-10T04:15:33.232Z,87.39
2022-09-10T04:20:38.020Z,85.97
2022-09-10T04:25:43.682Z,87.32
2022-09-10T04:30:45.470Z,88.42
2022-09-10T04:35:47.094Z,89.28
2022-09-10T04:40:48.699Z,89.51
2022-09-10T04:45:50.405Z,89.37
2022-09-10T04:51:14.722Z,89.39
2022-09-10T04:56:17.101Z,88.79
2022-09-10T05:01:18.720Z,88.97
2022-09-10T05:06:23.427Z,87.23
2022-09-10T05:11:25.416Z,87.46
2022-09-10T05:16:27.917Z,87.81
2022-09-10T05:21:31.126Z,86.77
2022-09-10T05:26:33.078Z,86.39
2022-09-10T05:31:35.288Z,86.63
2022-09-10T05:36:37.026Z,85.85
2022-09-10T05:41:39.042Z,85.18
2022-09-10T05:46:40.653Z,84.46
2022-09-10T05:51:48.052Z,83.86
2022-09-10T05:56:51.322Z,83.26
2022-09-10T06:01:53.214Z,83.34
2022-09-10T06:06:56.579Z,82.84
2022-09-10T06:11:59.316Z,82.24
2022-09-10T06:17:01.294Z,81.37
2022-09-10T06:22:05.029Z,79.40
2022-09-10T06:27:11.759Z,79.33
2022-09-10T06:32:14.738Z,79.25
2022-09-10T06:37:18.688Z,78.97
2022-09-10T06:42:20.803Z,77.42
2022-09-10T06:48:37.201Z,75.64
2022-09-10T06:53:26.875Z,73.81
2022-09-10T06:58:30.675Z,73.07
2022-09-10T07:03:32.358Z,71.96
2022-09-10T07:08:34.086Z,72.11
2022-09-10T07:13:35.801Z,71.43
2022-09-10T07:18:38.699Z,71.61
2022-09-10T07:23:40.944Z,70.83
2022-09-10T07:28:43.702Z,70.92
2022-09-10T07:33:47.021Z,70.69
2022-09-10T07:38:52.021Z,70.95
2022-09-10T07:43:55.388Z,71.68
2022-09-10T07:49:01.395Z,71.29
2022-09-10T07:54:03.352Z,71.46
2022-09-10T07:59:11.513Z,70.69
2022-09-10T08:04:19.482Z,69.83
2022-09-10T08:09:21.287Z,70.10
2022-09-10T08:14:28.048Z,70.05
2022-09-10T08:19:30.993Z,69.05
2022-09-10T08:24:33.058Z,69.27
2022-09-10T08:29:35.006Z,69.99
2022-09-10T08:34:37.021Z,69.18
2022-09-10T08:39:41.950Z,69.18
2022-09-10T08:44:49.781Z,69.77
2022-09-10T08:50:18.808Z,69.79
2022-09-10T08:55:21.762Z,69.63
2022-09-10T09:00:27.319Z,68.98
2022-09-10T09:05:33.477Z,68.18
2022-09-10T09:10:56.036Z,68.67
2022-09-10T09:16:28.784Z,68.42
2022-09-10T09:21:40.050Z,68.52
2022-09-10T09:26:45.422Z,68.12
2022-09-10T09:31:52.572Z,67.06
2022-09-10T09:36:55.311Z,66.53
2022-09-10T09:42:08.181Z,66.95
2022-09-10T09:47:09.912Z,65.32
2022-09-10T09:52:25.011Z,65.58
2022-09-10T09:57:27.329Z,66.52
2022-09-10T10:02:30.420Z,66.16
2022-09-10T10:07:34.568Z,65.18
2022-09-10T10:12:49.043Z,65.90
2022-09-10T10:17:51.482Z,65.68
2022-09-10T10:22:52.987Z,65.25
2022-09-10T10:27:54.537Z,64.84
2022-09-10T10:32:58.350Z,65.20
2022-09-10T10:38:22.757Z,64.46
2022-09-10T10:43:42.781Z,64.72
2022-09-10T10:48:47.263Z,65.09
2022-09-10T10:54:13.386Z,64.51
2022-09-10T10:59:44.661Z,63.79
2022-09-10T11:04:50.270Z,64.33
2022-09-10T11:10:11.412Z,64.48
2022-09-10T11:15:21.262Z,64.59
2022-09-10T11:20:30.104Z,63.99
2022-09-10T11:25:40.373Z,63.70
2022-09-10T11:30:46.884Z,63.76
2022-09-10T11:36:05.587Z,68.13
2022-09-10T11:41:23.465Z,68.05
2022-09-10T11:46:46.175Z,68.38
2022-09-10T11:51:48.140Z,67.53
2022-09-10T11:57:05.211Z,66.74
2022-09-10T12:02:25.340Z,66.42
2022-09-10T12:07:49.102Z,66.22
2022-09-10T12:12:51.084Z,71.30
2022-09-10T12:18:04.511Z,74.17
2022-09-10T12:23:06.386Z,73.21
2022-09-10T12:28:43.472Z,72.73
2022-09-10T12:33:48.676Z,70.75
2022-09-10T12:39:25.230Z,71.29
2022-09-10T12:44:36.125Z,69.18
2022-09-10T12:49:57.572Z,67.61
2022-09-10T12:55:16.867Z,67.73
2022-09-10T13:00:22.629Z,66.52
2022-09-10T13:05:33.523Z,66.24
2022-09-10T13:10:35.282Z,67.64
2022-09-10T13:15:38.957Z,67.04
2022-09-10T13:20:40.559Z,64.54
2022-09-10T13:25:43.856Z,64.85
2022-09-10T13:30:45.718Z,63.20
2022-09-10T13:35:47.550Z,63.51
2022-09-10T13:41:07.179Z,65.01
2022-09-10T13:46:12.759Z,65.79
2022-09-10T13:51:36.196Z,61.84
2022-09-10T13:56:43.571Z,61.92
2022-09-10T14:01:48.632Z,60.12
2022-09-10T14:06:50.531Z,60.75
2022-09-10T14:11:52.322Z,59.73
2022-09-10T14:16:59.987Z,60.85
2022-09-10T14:22:02.101Z,61.18
2022-09-10T14:27:27.615Z,61.01
2022-09-10T14:32:33.514Z,62.65
2022-09-10T14:37:39.660Z,63.11
2022-09-10T14:42:41.270Z,64.67
2022-09-10T14:47:51.792Z,64.92
2022-09-10T14:52:54.263Z,65.32
2022-09-10T14:57:55.973Z,65.64
2022-09-10T15:02:57.587Z,66.15
2022-09-10T15:07:59.188Z,65.39
2022-09-10T15:13:00.826Z,62.85
2022-09-10T15:18:02.819Z,63.26
2022-09-10T15:23:04.398Z,65.15
2022-09-10T15:28:07.556Z,66.32
2022-09-10T15:33:13.113Z,65.50
2022-09-10T15:38:15.919Z,64.82
2022-09-10T15:43:19.286Z,63.83
2022-09-10T15:48:20.807Z,60.19
2022-09-10T15:53:22.346Z,59.92
2022-09-10T15:58:25.605Z,60.29
2022-09-10T16:03:27.124Z,61.04
2022-09-10T16:08:28.667Z,60.38
2022-09-10T16:13:30.730Z,60.60
2022-09-10T16:18:32.811Z,60.68
2022-09-10T16:23:35.057Z,61.70
2022-09-10T16:28:37.323Z,61.30
2022-09-10T16:33:38.864Z,62.49
2022-09-10T16:38:41.774Z,62.52
2022-09-10T16:43:43.936Z,62.27
2022-09-10T16:48:45.794Z,62.26
2022-09-10T16:53:56.892Z,62.58
2022-09-10T16:58:58.458Z,62.48
2022-09-10T17:04:00.230Z,63.17
2022-09-10T17:09:02.084Z,62.56
2022-09-10T17:14:03.836Z,64.29
2022-09-10T17:19:10.954Z,64.84
2022-09-10T17:24:13.333Z,65.01
2022-09-10T17:29:17.512Z,65.51
2022-09-10T17:34:24.395Z,65.79
2022-09-10T17:39:29.295Z,66.13
2022-09-10T17:44:30.818Z,67.00
2022-09-10T17:49:33.254Z,68.39
2022-09-10T17:54:34.837Z,67.86
2022-09-10T17:59:37.145Z,69.14
2022-09-10T18:04:38.686Z,70.69
2022-09-10T18:09:40.363Z,70.49
2022-09-10T18:14:42.147Z,71.36
2022-09-10T18:19:43.832Z,73.68
2022-09-10T18:24:45.414Z,74.44
2022-09-10T18:29:46.967Z,75.86
2022-09-10T18:34:48.620Z,76.49
2022-09-10T18:39:50.692Z,76.91
2022-09-10T18:44:52.282Z,77.09
2022-09-10T18:49:53.833Z,77.81
2022-09-10T18:54:55.480Z,77.94
2022-09-10T18:59:57.162Z,77.75
2022-09-10T19:05:11.320Z,78.66
2022-09-10T19:10:13.695Z,79.37
2022-09-10T19:15:15.325Z,79.63
2022-09-10T19:20:16.883Z,80.26
2022-09-10T19:25:18.397Z,79.80
2022-09-10T19:30:19.888Z,81.16
2022-09-10T19:35:21.465Z,80.48
2022-09-10T19:40:23.015Z,81.25
2022-09-10T19:45:26.289Z,81.91
2022-09-10T19:50:28.203Z,82.03
2022-09-10T19:55:29.926Z,82.14
2022-09-10T20:00:46.433Z,82.69
2022-09-10T20:05:49.270Z,82.31
2022-09-10T20:10:51.891Z,82.75
2022-09-10T20:15:53.858Z,82.37
2022-09-10T20:20:55.468Z,82.24
2022-09-10T20:25:57.090Z,82.37
2022-09-10T20:30:59.243Z,82.61
2022-09-10T20:36:00.926Z,82.80
2022-09-10T20:41:02.862Z,83.34
2022-09-10T20:46:05.160Z,84.59
2022-09-10T20:51:07.421Z,84.32
2022-09-10T20:56:11.627Z,84.46
2022-09-10T21:01:24.010Z,84.80
2022-09-10T21:06:28.214Z,87.82
2022-09-10T21:11:31.309Z,86.66
2022-09-10T21:16:35.256Z,87.55
2022-09-10T21:21:37.197Z,89.34
2022-09-10T21:26:40.843Z,90.58
2022-09-10T21:31:42.868Z,91.34
2022-09-10T21:36:45.303Z,91.43
2022-09-10T21:41:49.186Z,89.95
2022-09-10T21:46:51.937Z,90.53
2022-09-10T21:51:53.580Z,90.89
2022-09-10T21:56:55.921Z,90.34
2022-09-10T22:01:57.532Z,90.92
2022-09-10T22:06:59.134Z,89.17
2022-09-10T22:12:00.781Z,90.67
2022-09-10T22:17:03.274Z,90.15
2022-09-10T22:22:06.065Z,89.58
2022-09-10T22:27:07.592Z,90.37
2022-09-10T22:32:09.233Z,91.75
2022-09-10T22:37:10.751Z,92.93
2022-09-10T22:42:12.278Z,92.54
2022-09-10T22:47:13.935Z,93.19
2022-09-10T22:52:15.668Z,91.98
2022-09-10T22:57:17.461Z,91.80
2022-09-10T23:02:19.162Z,92.58
2022-09-10T23:07:21.593Z,91.92
2022-09-10T23:12:23.149Z,91.41
2022-09-10T23:17:24.854Z,90.16
2022-09-10T23:22:26.378Z,91.10
2022-09-10T23:27:28.458Z,91.63
2022-09-10T23:32:30.026Z,92.84
2022-09-10T23:37:31.758Z,90.95
2022-09-10T23:42:33.374Z,91.08
2022-09-10T23:47:34.990Z,89.66
2022-09-10T23:52:36.551Z,90.69
2022-09-10T23:57:38.907Z,91.22
